Dwiggins, Mississippi
Current Conditions -  °F | °C
As of 6:35 AM on Monday 20 Oct 2014 (Local Time) from KRNV Reporting Station
Clear Clear  
Wind Chill: 47°   Ceiling: Unl
Heat Index: 47°   Visibility: 7mi
Dew Point: 47°   Wind: 0mph
Humidity: 100%   Direction: NA
Pressure: 30.08"   Gusts: NA
Location:  33.8731°N, 90.5512°W
Report Text: KRNV 201135Z AUTO 00000KT 7SM CLR 09/09 A3008 RMK AO2 T00860086
Loading
Personal Weather Stations






























Interactive Weather Map
Tropical Storm Tracking
New forecast layout! Learn more

10-Day Weather Forecast

Advertisements
Track Severe Weather on mobile